createdAt,value
2018-09-08T00:02:26.810Z,14.10
2018-09-08T00:04:55.004Z,14.10
2018-09-08T00:07:28.606Z,14.10
2018-09-08T00:09:56.784Z,14.00
2018-09-08T00:12:24.974Z,14.00
2018-09-08T00:14:52.428Z,14.00
2018-09-08T00:17:25.984Z,14.00
2018-09-08T00:19:59.632Z,14.10
2018-09-08T00:22:33.408Z,14.10
2018-09-08T00:25:07.121Z,14.10
2018-09-08T00:27:45.413Z,14.10
2018-09-08T00:30:15.208Z,14.10
2018-09-08T00:32:43.423Z,14.10
2018-09-08T00:35:11.620Z,14.10
2018-09-08T00:37:39.855Z,14.10
2018-09-08T00:40:08.053Z,14.10
2018-09-08T00:42:36.220Z,14.10
2018-09-08T00:45:04.737Z,14.10
2018-09-08T00:47:32.937Z,14.10
2018-09-08T00:50:01.148Z,14.00
2018-09-08T00:52:29.368Z,14.00
2018-09-08T00:54:57.561Z,14.00
2018-09-08T00:57:25.765Z,14.00
2018-09-08T00:59:53.952Z,14.00
2018-09-08T01:02:22.141Z,14.00
2018-09-08T01:04:50.336Z,14.00
2018-09-08T01:07:24.012Z,13.90
2018-09-08T01:09:52.241Z,13.90
2018-09-08T01:12:20.444Z,13.90
2018-09-08T01:14:48.628Z,13.90
2018-09-08T01:17:16.804Z,13.90
2018-09-08T01:19:44.993Z,13.90
2018-09-08T01:22:13.179Z,13.90
2018-09-08T01:24:41.352Z,13.90
2018-09-08T01:27:09.551Z,13.90
2018-09-08T01:29:37.765Z,13.80
2018-09-08T01:32:06.104Z,13.80
2018-09-08T01:34:34.292Z,13.80
2018-09-08T01:37:02.500Z,13.70
2018-09-08T01:39:30.720Z,13.60
2018-09-08T01:41:59.236Z,13.60
2018-09-08T01:44:27.431Z,13.50
2018-09-08T01:46:55.612Z,13.50
2018-09-08T01:49:23.813Z,13.40
2018-09-08T01:51:52.002Z,13.40
2018-09-08T01:54:20.204Z,13.40
2018-09-08T01:56:48.388Z,13.40
2018-09-08T01:59:16.648Z,13.40
2018-09-08T02:01:44.841Z,13.40
2018-09-08T02:04:13.024Z,13.40
2018-09-08T02:06:41.922Z,13.50
2018-09-08T02:09:10.380Z,13.50
2018-09-08T02:11:38.568Z,13.50
2018-09-08T02:14:06.792Z,13.50
2018-09-08T02:16:35.000Z,13.60
2018-09-08T02:20:27.672Z,13.60
2018-09-08T02:22:55.873Z,13.50
2018-09-08T02:25:24.081Z,13.50
2018-09-08T02:27:52.266Z,13.50
2018-09-08T02:30:20.460Z,13.50
2018-09-08T02:32:48.669Z,13.50
2018-09-08T02:35:16.848Z,13.50
2018-09-08T02:37:45.028Z,13.50
2018-09-08T02:40:13.376Z,13.50
2018-09-08T02:42:41.573Z,13.50
2018-09-08T02:45:09.768Z,13.50
2018-09-08T02:47:37.958Z,13.50
2018-09-08T02:50:17.759Z,13.50
2018-09-08T02:52:44.966Z,13.50
2018-09-08T02:55:12.203Z,13.50
2018-09-08T02:57:39.627Z,13.50
2018-09-08T03:00:06.819Z,13.40
2018-09-08T03:02:34.040Z,13.40
2018-09-08T03:05:01.246Z,13.30
2018-09-08T03:07:28.448Z,13.30
2018-09-08T03:09:55.658Z,13.30
2018-09-08T03:12:22.872Z,13.30
2018-09-08T03:14:50.098Z,13.20
2018-09-08T03:17:17.340Z,13.20
2018-09-08T03:19:44.540Z,13.30
2018-09-08T03:22:11.754Z,13.20
2018-09-08T03:24:38.958Z,13.20
2018-09-08T03:27:06.168Z,13.20
2018-09-08T03:29:33.384Z,13.20
2018-09-08T03:32:00.597Z,13.20
2018-09-08T03:34:27.799Z,13.10
2018-09-08T03:36:55.006Z,13.00
2018-09-08T03:39:22.205Z,13.00
2018-09-08T03:41:49.412Z,12.90
2018-09-08T03:44:16.621Z,12.90
2018-09-08T03:46:43.836Z,12.90
2018-09-08T03:49:11.040Z,12.80
2018-09-08T03:51:38.464Z,12.80
2018-09-08T03:54:05.674Z,12.80
2018-09-08T03:56:32.912Z,12.70
2018-09-08T03:59:00.386Z,12.70
2018-09-08T04:01:27.680Z,12.70
2018-09-08T04:03:55.903Z,12.70
2018-09-08T04:06:24.227Z,12.70
2018-09-08T04:08:52.396Z,12.60
2018-09-08T04:11:20.613Z,12.60
2018-09-08T04:13:48.751Z,12.60
2018-09-08T04:16:16.952Z,12.60
2018-09-08T04:18:45.176Z,12.70
2018-09-08T04:21:13.406Z,12.60
2018-09-08T04:23:41.578Z,12.60
2018-09-08T04:26:09.755Z,12.60
2018-09-08T04:28:37.944Z,12.60
2018-09-08T04:31:06.660Z,12.60
2018-09-08T04:33:35.071Z,12.50
2018-09-08T04:36:03.771Z,12.50
2018-09-08T04:38:32.140Z,12.50
2018-09-08T04:41:00.360Z,12.50
2018-09-08T04:43:28.512Z,12.40
2018-09-08T04:45:56.694Z,12.40
2018-09-08T04:48:24.872Z,12.30
2018-09-08T04:50:53.074Z,12.30
2018-09-08T04:53:21.260Z,12.30
2018-09-08T04:55:49.473Z,12.30
2018-09-08T04:58:17.652Z,12.30
2018-09-08T05:00:45.824Z,12.20
2018-09-08T05:03:14.127Z,12.20
2018-09-08T05:05:42.312Z,12.30
2018-09-08T05:08:10.488Z,12.30
2018-09-08T05:10:38.670Z,12.30
2018-09-08T05:13:07.009Z,12.40
2018-09-08T05:15:35.182Z,12.40
2018-09-08T05:18:03.444Z,12.40
2018-09-08T05:20:31.620Z,12.50
2018-09-08T05:22:59.805Z,12.50
2018-09-08T05:25:27.976Z,12.60
2018-09-08T05:27:56.160Z,12.70
2018-09-08T05:30:24.344Z,12.80
2018-09-08T05:32:52.532Z,12.90
2018-09-08T05:35:20.708Z,12.90
2018-09-08T05:37:48.879Z,13.10
2018-09-08T05:40:17.052Z,13.10
2018-09-08T05:42:45.232Z,13.20
2018-09-08T05:45:13.422Z,13.40
2018-09-08T05:47:41.597Z,13.50
2018-09-08T05:50:09.776Z,13.60
2018-09-08T05:52:37.968Z,13.70
2018-09-08T05:55:06.160Z,13.80
2018-09-08T05:57:34.336Z,13.90
2018-09-08T06:00:02.513Z,14.00
2018-09-08T06:02:30.681Z,14.10
2018-09-08T06:04:58.860Z,14.10
2018-09-08T06:07:27.029Z,14.20
2018-09-08T06:09:55.201Z,14.30
2018-09-08T06:12:23.383Z,14.50
2018-09-08T06:14:51.603Z,14.60
2018-09-08T06:17:19.823Z,14.80
2018-09-08T06:19:47.981Z,15.00
2018-09-08T06:22:16.159Z,15.20
2018-09-08T06:24:44.333Z,15.40
2018-09-08T06:27:12.508Z,15.50
2018-09-08T06:29:40.684Z,15.60
2018-09-08T06:32:08.901Z,15.70
2018-09-08T06:34:37.072Z,15.80
2018-09-08T06:37:05.259Z,15.90
2018-09-08T06:39:33.429Z,15.80
2018-09-08T06:42:01.622Z,15.90
2018-09-08T06:44:29.808Z,15.90
2018-09-08T06:46:57.980Z,15.80
2018-09-08T06:49:26.170Z,15.80
2018-09-08T06:51:54.348Z,15.70
2018-09-08T06:54:22.528Z,15.70
2018-09-08T06:56:50.704Z,15.70
2018-09-08T06:59:18.895Z,15.90
2018-09-08T07:01:47.068Z,16.20
2018-09-08T07:04:15.265Z,16.30
2018-09-08T07:06:43.458Z,16.50
2018-09-08T07:09:11.664Z,16.60
2018-09-08T07:11:39.877Z,16.80
2018-09-08T07:14:08.096Z,16.90
2018-09-08T07:16:36.309Z,17.20
2018-09-08T07:19:04.500Z,17.30
2018-09-08T07:21:32.721Z,17.30
2018-09-08T07:24:00.956Z,17.70
2018-09-08T07:26:29.137Z,17.70
2018-09-08T07:28:57.308Z,17.80
2018-09-08T07:31:25.479Z,18.00
2018-09-08T07:33:53.652Z,17.90
2018-09-08T07:36:22.036Z,17.80
2018-09-08T07:38:50.264Z,17.80
2018-09-08T07:41:18.443Z,17.80
2018-09-08T07:43:46.649Z,17.60
2018-09-08T07:46:14.804Z,17.50
2018-09-08T07:48:42.979Z,17.40
2018-09-08T07:51:11.184Z,17.40
2018-09-08T07:53:39.459Z,17.30
2018-09-08T07:56:07.793Z,17.30
2018-09-08T07:58:35.968Z,17.30
2018-09-08T08:01:04.210Z,17.30
2018-09-08T08:03:32.385Z,17.30
2018-09-08T08:06:00.596Z,17.40
2018-09-08T08:08:28.772Z,17.60
2018-09-08T08:10:56.948Z,17.70
2018-09-08T08:20:23.164Z,17.70
2018-09-08T08:22:51.366Z,17.50
2018-09-08T08:25:19.566Z,17.40
2018-09-08T08:27:47.804Z,17.60
2018-09-08T08:30:16.018Z,17.70
2018-09-08T08:32:44.240Z,17.90
2018-09-08T08:35:12.440Z,18.30
2018-09-08T08:37:40.895Z,18.40
2018-09-08T08:40:09.138Z,18.50
2018-09-08T08:42:37.345Z,18.50
2018-09-08T08:45:05.657Z,18.50
2018-09-08T08:47:33.883Z,18.60
2018-09-08T08:50:13.732Z,18.80
2018-09-08T08:52:53.545Z,18.90
2018-09-08T08:55:21.748Z,18.90
2018-09-08T08:57:50.773Z,19.00
2018-09-08T09:00:19.004Z,18.90
2018-09-08T09:02:47.184Z,18.90
2018-09-08T09:05:15.416Z,18.90
2018-09-08T09:07:43.633Z,18.90
2018-09-08T09:10:11.835Z,18.80
2018-09-08T09:12:40.016Z,18.80
2018-09-08T09:15:08.648Z,19.10
2018-09-08T09:17:36.421Z,19.20
2018-09-08T09:20:16.145Z,19.30
2018-09-08T09:22:55.748Z,19.50
2018-09-08T09:25:23.933Z,19.60
2018-09-08T09:27:53.070Z,19.70
2018-09-08T09:30:21.865Z,19.90
2018-09-08T09:32:50.044Z,20.00
2018-09-08T09:35:20.469Z,20.10
2018-09-08T09:37:48.648Z,20.00
2018-09-08T09:40:18.145Z,20.00
2018-09-08T09:42:46.347Z,20.10
2018-09-08T09:45:14.544Z,20.00
2018-09-08T09:47:42.748Z,20.00
2018-09-08T09:50:12.071Z,20.10
2018-09-08T09:52:40.555Z,20.10
2018-09-08T09:55:08.828Z,20.00
2018-09-08T09:57:37.058Z,19.90
2018-09-08T10:00:06.575Z,19.60
2018-09-08T10:02:41.466Z,19.30
2018-09-08T10:05:11.868Z,19.30
2018-09-08T10:07:40.365Z,19.40
2018-09-08T10:10:10.156Z,19.50
2018-09-08T10:12:38.640Z,19.80
2018-09-08T10:15:07.244Z,20.10
2018-09-08T10:17:35.721Z,20.10
2018-09-08T10:20:04.234Z,20.10
2018-09-08T10:22:32.427Z,20.00
2018-09-08T10:25:00.633Z,19.80
2018-09-08T10:27:28.825Z,19.60
2018-09-08T10:29:57.605Z,19.50
2018-09-08T10:32:25.796Z,19.60
2018-09-08T10:34:54.002Z,19.60
2018-09-08T10:37:22.180Z,19.50
2018-09-08T10:39:50.364Z,19.50
2018-09-08T10:42:18.565Z,19.60
2018-09-08T10:44:46.757Z,20.00
2018-09-08T10:47:14.952Z,20.30
2018-09-08T10:49:43.152Z,20.50
2018-09-08T10:52:22.605Z,20.50
2018-09-08T10:54:50.809Z,20.40
2018-09-08T10:57:20.447Z,20.30
2018-09-08T10:59:49.245Z,20.60
2018-09-08T11:02:17.763Z,20.50
2018-09-08T11:04:45.657Z,20.40
2018-09-08T11:07:13.844Z,20.40
2018-09-08T11:09:42.033Z,20.10
2018-09-08T11:12:10.313Z,19.90
2018-09-08T11:14:38.509Z,19.60
2018-09-08T11:17:07.333Z,19.70
2018-09-08T11:20:00.996Z,20.30
2018-09-08T11:22:29.221Z,20.40
2018-09-08T11:24:57.368Z,21.10
2018-09-08T11:27:25.564Z,21.10
2018-09-08T11:29:53.722Z,21.60
2018-09-08T11:32:21.896Z,22.20
2018-09-08T11:34:50.065Z,22.70
2018-09-08T11:37:18.782Z,23.10
2018-09-08T11:39:46.950Z,23.30
2018-09-08T11:42:15.120Z,23.30
2018-09-08T11:44:43.325Z,23.40
2018-09-08T11:47:11.499Z,23.70
2018-09-08T11:49:39.782Z,23.70
2018-09-08T11:52:07.896Z,23.70
2018-09-08T11:54:36.096Z,23.90
2018-09-08T11:57:04.282Z,24.00
2018-09-08T11:59:32.517Z,24.10
2018-09-08T12:02:00.692Z,24.40
2018-09-08T12:04:28.928Z,24.40
2018-09-08T12:06:57.137Z,24.60
2018-09-08T12:09:25.336Z,24.00
2018-09-08T12:11:53.532Z,23.50
2018-09-08T12:14:21.704Z,23.10
2018-09-08T12:16:50.913Z,22.70
2018-09-08T12:19:19.099Z,22.50
2018-09-08T12:21:47.284Z,22.40
2018-09-08T12:24:15.496Z,22.40
2018-09-08T12:26:43.684Z,22.60
2018-09-08T12:29:11.888Z,23.00
2018-09-08T12:31:40.060Z,22.90
2018-09-08T12:34:08.261Z,22.70
2018-09-08T12:36:36.426Z,22.60
2018-09-08T12:39:06.808Z,22.60
2018-09-08T12:41:34.971Z,22.90
2018-09-08T12:44:03.294Z,23.00
2018-09-08T12:46:31.517Z,22.70
2018-09-08T12:48:59.707Z,22.60
2018-09-08T12:51:27.909Z,22.70
2018-09-08T12:53:56.100Z,22.70
2018-09-08T12:56:24.268Z,22.80
2018-09-08T12:58:52.485Z,22.90
2018-09-08T13:01:20.670Z,23.00
2018-09-08T13:03:48.925Z,22.80
2018-09-08T13:06:17.101Z,22.70
2018-09-08T13:08:46.275Z,22.80
2018-09-08T13:11:14.455Z,22.90
2018-09-08T13:13:42.880Z,23.00
2018-09-08T13:16:11.055Z,23.00
2018-09-08T13:18:39.322Z,23.00
2018-09-08T13:21:07.519Z,22.90
2018-09-08T13:23:35.772Z,22.60
2018-09-08T13:26:04.933Z,22.20
2018-09-08T13:28:33.277Z,21.90
2018-09-08T13:31:02.822Z,21.80
2018-09-08T13:33:31.048Z,21.50
2018-09-08T13:35:59.216Z,21.40
2018-09-08T13:38:27.535Z,21.50
2018-09-08T13:40:55.721Z,21.90
2018-09-08T13:43:25.121Z,22.10
2018-09-08T13:45:53.538Z,22.10
2018-09-08T13:48:21.732Z,21.90
2018-09-08T13:50:50.077Z,21.80
2018-09-08T13:53:18.538Z,21.70
2018-09-08T13:55:46.756Z,21.60
2018-09-08T13:58:14.936Z,21.50
2018-09-08T14:00:43.489Z,21.70
2018-09-08T14:03:16.128Z,22.00
2018-09-08T14:05:47.898Z,22.40
2018-09-08T14:08:17.363Z,22.60
2018-09-08T14:10:46.503Z,22.80
2018-09-08T14:13:14.980Z,22.70
2018-09-08T14:15:43.236Z,22.70
2018-09-08T14:18:11.412Z,22.50
2018-09-08T14:20:39.645Z,22.30
2018-09-08T14:23:07.941Z,22.00
2018-09-08T14:25:41.093Z,21.70
2018-09-08T14:28:09.301Z,21.40
2018-09-08T14:30:37.552Z,21.20
2018-09-08T14:33:05.820Z,21.10
2018-09-08T14:35:34.077Z,21.00
2018-09-08T14:38:02.324Z,20.80
2018-09-08T14:40:30.595Z,20.70
2018-09-08T14:42:58.825Z,20.60
2018-09-08T14:45:27.087Z,20.50
2018-09-08T14:47:55.381Z,20.50
2018-09-08T14:50:31.000Z,20.50
2018-09-08T14:52:59.229Z,20.40
2018-09-08T14:55:51.244Z,20.40
2018-09-08T14:58:19.580Z,20.30
2018-09-08T15:00:47.792Z,20.20
2018-09-08T15:03:16.525Z,20.30
2018-09-08T15:05:47.278Z,20.30
2018-09-08T15:08:16.620Z,20.30
2018-09-08T15:10:46.581Z,20.30
2018-09-08T15:13:16.408Z,20.20
2018-09-08T15:15:45.266Z,20.30
2018-09-08T15:18:16.770Z,20.30
2018-09-08T15:20:45.669Z,20.20
2018-09-08T15:23:13.960Z,20.20
2018-09-08T15:25:42.152Z,20.30
2018-09-08T15:28:10.352Z,20.50
2018-09-08T15:30:38.559Z,20.60
2018-09-08T15:33:06.741Z,20.60
2018-09-08T15:35:34.989Z,20.70
2018-09-08T15:38:03.166Z,20.70
2018-09-08T15:40:31.423Z,20.70
2018-09-08T15:42:59.609Z,20.60
2018-09-08T15:45:27.865Z,20.60
2018-09-08T15:47:55.984Z,20.60
2018-09-08T15:50:24.236Z,20.50
2018-09-08T15:52:52.425Z,20.50
2018-09-08T15:55:20.689Z,20.40
2018-09-08T15:57:48.919Z,20.40
2018-09-08T16:00:17.313Z,20.40
2018-09-08T16:02:45.528Z,20.40
2018-09-08T16:05:13.828Z,20.30
2018-09-08T16:07:42.303Z,20.20
2018-09-08T16:10:10.464Z,20.10
2018-09-08T16:12:38.752Z,20.10
2018-09-08T16:15:06.984Z,20.10
2018-09-08T16:17:35.168Z,20.00
2018-09-08T16:20:03.449Z,20.00
2018-09-08T16:22:31.636Z,19.90
2018-09-08T16:24:59.871Z,19.90
2018-09-08T16:27:28.046Z,19.80
2018-09-08T16:29:56.242Z,19.80
2018-09-08T16:32:24.460Z,19.80
2018-09-08T16:34:52.674Z,19.70
2018-09-08T16:37:20.940Z,19.60
2018-09-08T16:39:49.220Z,19.60
2018-09-08T16:42:17.445Z,19.50
2018-09-08T16:44:45.633Z,19.50
2018-09-08T16:47:13.838Z,19.50
2018-09-08T16:49:42.049Z,19.40
2018-09-08T16:52:10.612Z,19.40
2018-09-08T16:54:38.804Z,19.30
2018-09-08T16:57:07.019Z,19.20
2018-09-08T16:59:35.292Z,19.20
2018-09-08T17:02:03.495Z,19.10
2018-09-08T17:04:31.707Z,19.00
2018-09-08T17:06:59.939Z,18.90
2018-09-08T17:09:28.276Z,18.90
2018-09-08T17:11:56.483Z,18.80
2018-09-08T17:14:24.650Z,18.70
2018-09-08T17:16:52.826Z,18.60
2018-09-08T17:19:21.023Z,18.60
2018-09-08T17:21:49.371Z,18.50
2018-09-08T17:24:17.572Z,18.30
2018-09-08T17:26:45.764Z,18.30
2018-09-08T17:29:13.992Z,18.20
2018-09-08T17:31:42.213Z,18.10
2018-09-08T17:34:10.468Z,18.00
2018-09-08T17:36:38.684Z,17.90
2018-09-08T17:39:09.216Z,17.80
2018-09-08T17:41:37.417Z,17.70
2018-09-08T17:44:06.404Z,17.60
2018-09-08T17:46:34.672Z,17.50
2018-09-08T17:49:02.885Z,17.40
2018-09-08T17:51:31.610Z,17.30
2018-09-08T17:54:00.004Z,17.20
2018-09-08T17:56:28.689Z,17.10
2018-09-08T17:58:56.976Z,17.00
2018-09-08T18:01:25.126Z,16.90
2018-09-08T18:03:53.624Z,16.90
2018-09-08T18:06:22.428Z,16.80
2018-09-08T18:08:50.739Z,16.70
2018-09-08T18:11:20.338Z,16.60
2018-09-08T18:13:48.521Z,16.50
2018-09-08T18:16:17.510Z,16.50
2018-09-08T18:18:46.049Z,16.40
2018-09-08T18:21:14.232Z,16.30
2018-09-08T18:23:42.731Z,16.20
2018-09-08T18:26:11.896Z,16.10
2018-09-08T18:28:40.111Z,16.10
2018-09-08T18:31:08.301Z,16.10
2018-09-08T18:33:36.712Z,16.00
2018-09-08T18:36:04.942Z,15.90
2018-09-08T18:38:33.242Z,15.90
2018-09-08T18:41:02.255Z,15.80
2018-09-08T18:43:31.333Z,15.70
2018-09-08T18:45:59.638Z,15.70
2018-09-08T18:48:27.897Z,15.60
2018-09-08T18:50:56.086Z,15.50
2018-09-08T18:53:24.272Z,15.50
2018-09-08T18:55:52.508Z,15.40
2018-09-08T18:58:20.708Z,15.30
2018-09-08T19:00:49.005Z,15.30
2018-09-08T19:03:17.209Z,15.20
2018-09-08T19:05:45.673Z,15.10
2018-09-08T19:08:14.044Z,15.10
2018-09-08T19:10:42.729Z,15.00
2018-09-08T19:13:10.936Z,14.90
2018-09-08T19:15:39.117Z,14.80
2018-09-08T19:18:07.340Z,14.70
2018-09-08T19:20:36.740Z,14.70
2018-09-08T19:23:05.362Z,14.60
2018-09-08T19:25:33.840Z,14.60
2018-09-08T19:28:02.166Z,14.60
2018-09-08T19:30:30.355Z,14.60
2018-09-08T19:32:58.572Z,14.60
2018-09-08T19:35:32.180Z,14.50
2018-09-08T19:38:00.388Z,14.50
2018-09-08T19:40:34.241Z,14.40
2018-09-08T19:43:02.444Z,14.40
2018-09-08T19:45:30.638Z,14.40
2018-09-08T19:48:20.781Z,14.30
2018-09-08T19:50:49.825Z,14.30
2018-09-08T19:53:23.303Z,14.30
2018-09-08T19:55:51.540Z,14.20
2018-09-08T19:58:25.343Z,14.20
2018-09-08T20:00:54.362Z,14.10
2018-09-08T20:03:22.573Z,14.00
2018-09-08T20:05:52.462Z,13.90
2018-09-08T20:08:20.832Z,13.90
2018-09-08T20:10:49.066Z,13.90
2018-09-08T20:13:17.306Z,13.90
2018-09-08T20:15:45.888Z,13.90
2018-09-08T20:18:14.083Z,13.80
2018-09-08T20:20:42.732Z,13.80
2018-09-08T20:23:43.115Z,13.80
2018-09-08T20:26:11.808Z,13.70
2018-09-08T20:28:40.101Z,13.70
2018-09-08T20:31:18.291Z,13.60
2018-09-08T20:33:49.352Z,13.60
2018-09-08T20:36:17.604Z,13.50
2018-09-08T20:38:46.872Z,13.50
2018-09-08T20:41:20.733Z,13.50
2018-09-08T20:43:48.980Z,13.50
2018-09-08T20:46:20.719Z,13.40
2018-09-08T20:48:49.173Z,13.40
2018-09-08T20:51:18.002Z,13.30
2018-09-08T20:53:46.592Z,13.20
2018-09-08T20:56:14.836Z,13.20
2018-09-08T20:58:43.090Z,13.20
2018-09-08T21:01:11.405Z,13.10
2018-09-08T21:03:39.756Z,13.10
2018-09-08T21:06:08.052Z,13.00
2018-09-08T21:08:37.088Z,13.00
2018-09-08T21:11:08.157Z,13.00
2018-09-08T21:13:37.080Z,13.00
2018-09-08T21:16:06.849Z,12.90
2018-09-08T21:21:12.233Z,12.90
2018-09-08T21:23:40.933Z,12.80
2018-09-08T21:26:09.112Z,12.80
2018-09-08T21:28:37.296Z,12.80
2018-09-08T21:31:05.556Z,12.70
2018-09-08T21:33:33.735Z,12.60
2018-09-08T21:36:01.965Z,12.60
2018-09-08T21:38:30.200Z,12.60
2018-09-08T21:40:58.449Z,12.60
2018-09-08T21:43:26.742Z,12.50
2018-09-08T21:45:55.593Z,12.50
2018-09-08T21:48:23.871Z,12.60
2018-09-08T21:50:52.115Z,12.50
2018-09-08T21:54:32.766Z,12.50
2018-09-08T21:57:00.964Z,12.50
2018-09-08T21:59:29.151Z,12.50
2018-09-08T22:01:58.552Z,12.50
2018-09-08T22:04:27.240Z,12.50
2018-09-08T22:06:56.428Z,12.50
2018-09-08T22:09:26.707Z,12.40
2018-09-08T22:11:55.664Z,12.40
2018-09-08T22:14:23.854Z,12.40
2018-09-08T22:16:52.394Z,12.30
2018-09-08T22:19:20.597Z,12.30
2018-09-08T22:21:49.980Z,12.30
2018-09-08T22:24:18.523Z,12.30
2018-09-08T22:26:46.729Z,12.30
2018-09-08T22:29:15.323Z,12.30
2018-09-08T22:31:43.599Z,12.20
2018-09-08T22:34:12.147Z,12.20
2018-09-08T22:36:40.894Z,12.10
2018-09-08T22:39:09.645Z,12.00
2018-09-08T22:41:38.767Z,11.90
2018-09-08T22:44:07.116Z,11.90
2018-09-08T22:46:35.295Z,11.90
2018-09-08T22:49:03.801Z,11.90
2018-09-08T22:51:32.890Z,11.90
2018-09-08T22:54:01.891Z,11.80
2018-09-08T22:56:30.240Z,11.90
2018-09-08T22:58:59.157Z,11.90
2018-09-08T23:01:28.355Z,12.00
2018-09-08T23:03:57.778Z,12.00
2018-09-08T23:06:26.634Z,12.00
2018-09-08T23:08:55.245Z,12.00
2018-09-08T23:11:24.232Z,12.00
2018-09-08T23:13:52.416Z,12.10
2018-09-08T23:16:20.610Z,12.10
2018-09-08T23:18:48.796Z,12.10
2018-09-08T23:21:16.990Z,12.10
2018-09-08T23:23:45.216Z,12.00
2018-09-08T23:26:13.388Z,12.10
2018-09-08T23:28:41.612Z,12.10
2018-09-08T23:31:09.790Z,12.10
2018-09-08T23:33:37.962Z,12.10
2018-09-08T23:36:06.266Z,12.10
2018-09-08T23:38:34.459Z,12.00
2018-09-08T23:41:02.656Z,12.00
2018-09-08T23:43:30.848Z,12.00
2018-09-08T23:45:59.022Z,12.00
2018-09-08T23:48:27.200Z,12.00
2018-09-08T23:50:55.384Z,12.00
2018-09-08T23:53:23.564Z,12.00
2018-09-08T23:55:51.744Z,12.00
2018-09-08T23:58:19.948Z,12.00
